Amboy, CA

8:20 PM PDT on August 03, 2015 (GMT -0700)
Twentynine Palms Expeditionary Air Field | | Change Station
CLOSE
Current Station
Airport
Location: Twentynine Palms,
Elevation: 2054 ft
Nearby Weather Stations

Elev 2054 ft 34.30 °N, 116.16 °W | Updated 24 minutes ago

Clear
Clear
94 °F
Feels Like 94 °F
N
17
Wind Variable Wind from SW

Today
High -- | Low -- °F
--% Chance of Precip.
Yesterday
High -- | Low -- °F
Precip. -- in
5:55 AM 7:43 PM
Waning Gibbous, 81% visible
Pressure 29.75 in
Visibility 10.0 miles
Clouds Few 20000 ft
Dew Point 26 °F
Humidity 9%
Rainfall 0.00 in
Snow Depth Not available.
UV 0 out of 12
Pollen 5.00 out of 12
Air Quality Not available.
Flu Activity Not available.
METAR KNXP 040256Z 22015KT 10SM FEW200 34/M03 A2987 RMK AO2 SLP073 T03441033 55000

More Conditions Fewer Conditions

Pressure 29.75 in
Visibility 10.0 miles
Clouds Few 20000 ft
Dew Point 26 °F
Humidity 9%
Rainfall 0.00 in
Snow Depth Not available.
UV 0 out of 12
Pollen 5.00 out of 12
Air Quality Not available.
Flu Activity Not available.
METAR KNXP 040256Z 22015KT 10SM FEW200 34/M03 A2987 RMK AO2 SLP073 T03441033 55000

More Conditions Fewer Conditions

10-Day Weather Forecast

×

Almanac

Astronomy

Aug. 03, 2015 Rise Set
Actual Time
Civil Twilight
Nautical Twilight
Astronomical Twilight
Moon
Length of Visible Light
Length of Day
Tomorrow will be .
, % of the Moon is Illuminated

Today's Extremes

State Highs State Lows

Community

WunderPhotos

Upload Photos

1,843,838 photos uploaded!

WunderBlogs® & News

Nearby

Air Quality

  Air Quality AQ Index Pollutant
Not available.

Snow Depth

Station Depth Elevation

Earthquake Activity

City Distance Mag. Time & Date
Minimum magnitude displayed is 2.5.

Coastal Water Temperatures

Place Temperature

Stations

Nearby Weather Stations

Station Location Temp. Windchill Dew Point Humidity Wind Precip. Elev Updated Type